sensor_id;sensor_type;location;lat;lon;timestamp;pressure;altitude;pressure_sealevel;temperature;humidity
9257;BME280;4665;51.368;6.782;2022-12-10T00:00:51;100513.03;;;-1.21;100.00
9257;BME280;4665;51.368;6.782;2022-12-10T00:03:16;100522.72;;;-1.23;100.00
9257;BME280;4665;51.368;6.782;2022-12-10T00:05:42;100520.47;;;-1.30;100.00
9257;BME280;4665;51.368;6.782;2022-12-10T00:08:07;100510.16;;;-1.33;100.00
9257;BME280;4665;51.368;6.782;2022-12-10T00:10:33;100522.13;;;-1.29;100.00
9257;BME280;4665;51.368;6.782;2022-12-10T00:12:58;100522.97;;;-1.28;100.00
9257;BME280;4665;51.368;6.782;2022-12-10T00:15:24;100520.47;;;-1.30;100.00
9257;BME280;4665;51.368;6.782;2022-12-10T00:17:49;100529.16;;;-1.29;100.00
9257;BME280;4665;51.368;6.782;2022-12-10T00:20:15;100519.53;;;-1.29;100.00
9257;BME280;4665;51.368;6.782;2022-12-10T00:22:40;100516.97;;;-1.30;100.00
9257;BME280;4665;51.368;6.782;2022-12-10T00:25:06;100507.72;;;-1.36;100.00
9257;BME280;4665;51.368;6.782;2022-12-10T00:27:31;100524.25;;;-1.35;100.00
9257;BME280;4665;51.368;6.782;2022-12-10T00:29:57;100521.81;;;-1.38;100.00
9257;BME280;4665;51.368;6.782;2022-12-10T00:32:22;100519.28;;;-1.40;100.00
9257;BME280;4665;51.368;6.782;2022-12-10T00:34:48;100523.47;;;-1.37;100.00
9257;BME280;4665;51.368;6.782;2022-12-10T00:37:13;100517.91;;;-1.47;100.00
9257;BME280;4665;51.368;6.782;2022-12-10T00:39:38;100516.06;;;-1.45;100.00
9257;BME280;4665;51.368;6.782;2022-12-10T00:42:04;100522.97;;;-1.44;100.00
9257;BME280;4665;51.368;6.782;2022-12-10T00:44:29;100522.97;;;-1.44;100.00
9257;BME280;4665;51.368;6.782;2022-12-10T00:46:55;100521.47;;;-1.48;100.00
9257;BME280;4665;51.368;6.782;2022-12-10T00:49:20;100527.59;;;-1.49;100.00
9257;BME280;4665;51.368;6.782;2022-12-10T00:51:48;100531.06;;;-1.49;100.00
9257;BME280;4665;51.368;6.782;2022-12-10T00:54:13;100531.06;;;-1.49;100.00
9257;BME280;4665;51.368;6.782;2022-12-10T00:56:39;100521.63;;;-1.51;100.00
9257;BME280;4665;51.368;6.782;2022-12-10T00:59:04;100525.09;;;-1.51;100.00
9257;BME280;4665;51.368;6.782;2022-12-10T01:01:36;100522.50;;;-1.51;100.00
9257;BME280;4665;51.368;6.782;2022-12-10T01:04:10;100520.78;;;-1.52;100.00
9257;BME280;4665;51.368;6.782;2022-12-10T01:09:08;100522.13;;;-1.60;100.00
9257;BME280;4665;51.368;6.782;2022-12-10T01:11:37;100525.59;;;-1.60;100.00
9257;BME280;4665;51.368;6.782;2022-12-10T01:14:04;100529.03;;;-1.59;100.00
9257;BME280;4665;51.368;6.782;2022-12-10T01:16:30;100532.56;;;-1.60;100.00
9257;BME280;4665;51.368;6.782;2022-12-10T01:18:57;100536.06;;;-1.60;100.00
9257;BME280;4665;51.368;6.782;2022-12-10T01:21:24;100533.44;;;-1.60;100.00
9257;BME280;4665;51.368;6.782;2022-12-10T01:23:51;100533.00;;;-1.68;100.00
9257;BME280;4665;51.368;6.782;2022-12-10T01:26:21;100539.16;;;-1.69;100.00
9257;BME280;4665;51.368;6.782;2022-12-10T01:28:47;100540.75;;;-1.66;100.00
9257;BME280;4665;51.368;6.782;2022-12-10T01:31:16;100540.00;;;-1.68;100.00
9257;BME280;4665;51.368;6.782;2022-12-10T01:33:42;100544.38;;;-1.69;100.00
9257;BME280;4665;51.368;6.782;2022-12-10T01:36:16;100548.97;;;-1.74;100.00
9257;BME280;4665;51.368;6.782;2022-12-10T01:38:43;100550.22;;;-1.81;100.00
9257;BME280;4665;51.368;6.782;2022-12-10T01:41:15;100540.91;;;-1.85;100.00
9257;BME280;4665;51.368;6.782;2022-12-10T01:46:14;100549.56;;;-1.85;100.00
9257;BME280;4665;51.368;6.782;2022-12-10T01:48:40;100536.91;;;-1.93;100.00
9257;BME280;4665;51.368;6.782;2022-12-10T01:51:06;100559.00;;;-1.82;100.00
9257;BME280;4665;51.368;6.782;2022-12-10T01:53:33;100558.16;;;-1.83;100.00
9257;BME280;4665;51.368;6.782;2022-12-10T01:55:58;100550.56;;;-1.87;100.00
9257;BME280;4665;51.368;6.782;2022-12-10T01:58:24;100560.78;;;-1.83;100.00
9257;BME280;4665;51.368;6.782;2022-12-10T02:04:08;100564.53;;;-1.88;100.00
9257;BME280;4665;51.368;6.782;2022-12-10T02:06:42;100568.91;;;-1.89;100.00
9257;BME280;4665;51.368;6.782;2022-12-10T02:09:42;100567.38;;;-1.93;100.00
9257;BME280;4665;51.368;6.782;2022-12-10T02:15:14;100567.78;;;-2.01;100.00
9257;BME280;4665;51.368;6.782;2022-12-10T02:17:47;100568.72;;;-2.02;100.00
9257;BME280;4665;51.368;6.782;2022-12-10T02:22:51;100559.25;;;-2.04;100.00
9257;BME280;4665;51.368;6.782;2022-12-10T02:25:23;100564.47;;;-2.04;100.00
9257;BME280;4665;51.368;6.782;2022-12-10T02:28:32;100562.63;;;-2.02;100.00
9257;BME280;4665;51.368;6.782;2022-12-10T02:30:55;100566.97;;;-2.01;100.00
9257;BME280;4665;51.368;6.782;2022-12-10T02:33:22;100564.34;;;-2.01;100.00
9257;BME280;4665;51.368;6.782;2022-12-10T02:35:50;100570.72;;;-2.07;100.00
9257;BME280;4665;51.368;6.782;2022-12-10T02:38:20;100555.63;;;-2.18;100.00
9257;BME280;4665;51.368;6.782;2022-12-10T02:40:52;100557.91;;;-2.12;100.00
9257;BME280;4665;51.368;6.782;2022-12-10T02:43:23;100558.66;;;-2.09;100.00
9257;BME280;4665;51.368;6.782;2022-12-10T02:45:50;100551.66;;;-2.09;100.00
9257;BME280;4665;51.368;6.782;2022-12-10T02:48:17;100555.03;;;-2.07;100.00
9257;BME280;4665;51.368;6.782;2022-12-10T02:50:43;100565.59;;;-2.08;100.00
9257;BME280;4665;51.368;6.782;2022-12-10T02:53:09;100564.13;;;-2.14;100.00
9257;BME280;4665;51.368;6.782;2022-12-10T02:59:41;100571.41;;;-2.03;100.00
9257;BME280;4665;51.368;6.782;2022-12-10T03:02:07;100572.00;;;-1.98;100.00
9257;BME280;4665;51.368;6.782;2022-12-10T03:04:51;100572.84;;;-1.98;100.00
9257;BME280;4665;51.368;6.782;2022-12-10T03:07:52;100575.31;;;-1.95;100.00
9257;BME280;4665;51.368;6.782;2022-12-10T03:13:00;100577.75;;;-1.92;100.00
9257;BME280;4665;51.368;6.782;2022-12-10T03:15:32;100576.00;;;-1.91;100.00
9257;BME280;4665;51.368;6.782;2022-12-10T03:18:01;100570.94;;;-1.94;100.00
9257;BME280;4665;51.368;6.782;2022-12-10T03:20:29;100580.31;;;-1.90;100.00
9257;BME280;4665;51.368;6.782;2022-12-10T03:22:56;100579.38;;;-1.89;100.00
9257;BME280;4665;51.368;6.782;2022-12-10T03:25:25;100577.75;;;-1.92;100.00
9257;BME280;4665;51.368;6.782;2022-12-10T03:27:54;100580.44;;;-1.93;100.00
9257;BME280;4665;51.368;6.782;2022-12-10T03:30:21;100582.06;;;-1.91;100.00
9257;BME280;4665;51.368;6.782;2022-12-10T03:32:47;100582.16;;;-1.92;100.00
9257;BME280;4665;51.368;6.782;2022-12-10T03:35:14;100587.03;;;-1.86;100.00
9257;BME280;4665;51.368;6.782;2022-12-10T03:37:41;100588.63;;;-1.83;100.00
9257;BME280;4665;51.368;6.782;2022-12-10T03:40:08;100592.03;;;-1.81;100.00
9257;BME280;4665;51.368;6.782;2022-12-10T03:42:37;100594.56;;;-1.80;100.00
9257;BME280;4665;51.368;6.782;2022-12-10T03:45:04;100588.50;;;-1.80;100.00
9257;BME280;4665;51.368;6.782;2022-12-10T03:47:29;100594.38;;;-1.77;100.00
9257;BME280;4665;51.368;6.782;2022-12-10T03:49:55;100596.94;;;-1.75;100.00
9257;BME280;4665;51.368;6.782;2022-12-10T03:52:21;100590.78;;;-1.74;100.00
9257;BME280;4665;51.368;6.782;2022-12-10T03:54:46;100602.84;;;-1.72;100.00
9257;BME280;4665;51.368;6.782;2022-12-10T03:57:12;100601.91;;;-1.71;100.00
9257;BME280;4665;51.368;6.782;2022-12-10T03:59:37;100595.03;;;-1.72;100.00
9257;BME280;4665;51.368;6.782;2022-12-10T04:02:03;100594.84;;;-1.68;100.00
9257;BME280;4665;51.368;6.782;2022-12-10T04:04:28;100588.69;;;-1.67;100.00
9257;BME280;4665;51.368;6.782;2022-12-10T04:06:54;100593.00;;;-1.66;100.00
9257;BME280;4665;51.368;6.782;2022-12-10T04:09:19;100594.59;;;-1.64;100.00
9257;BME280;4665;51.368;6.782;2022-12-10T04:11:45;100592.06;;;-1.65;100.00
9257;BME280;4665;51.368;6.782;2022-12-10T04:14:11;100591.91;;;-1.62;100.00
9257;BME280;4665;51.368;6.782;2022-12-10T04:16:55;100591.22;;;-1.66;100.00
9257;BME280;4665;51.368;6.782;2022-12-10T04:19:21;100594.78;;;-1.67;100.00
9257;BME280;4665;51.368;6.782;2022-12-10T04:21:47;100594.78;;;-1.67;100.00
9257;BME280;4665;51.368;6.782;2022-12-10T04:24:33;100590.28;;;-1.65;100.00
9257;BME280;4665;51.368;6.782;2022-12-10T04:27:29;100590.53;;;-1.70;100.00
9257;BME280;4665;51.368;6.782;2022-12-10T04:29:56;100584.47;;;-1.70;100.00
9257;BME280;4665;51.368;6.782;2022-12-10T04:32:24;100597.28;;;-1.65;100.00
9257;BME280;4665;51.368;6.782;2022-12-10T04:34:50;100587.66;;;-1.65;100.00
9257;BME280;4665;51.368;6.782;2022-12-10T04:37:16;100583.31;;;-1.64;100.00
9257;BME280;4665;51.368;6.782;2022-12-10T04:39:42;100588.38;;;-1.61;100.00
9257;BME280;4665;51.368;6.782;2022-12-10T04:42:08;100588.38;;;-1.61;100.00
9257;BME280;4665;51.368;6.782;2022-12-10T04:44:34;100591.16;;;-1.64;100.00
9257;BME280;4665;51.368;6.782;2022-12-10T04:47:00;100595.63;;;-1.66;100.00
9257;BME280;4665;51.368;6.782;2022-12-10T04:49:26;100590.69;;;-1.73;100.00
9257;BME280;4665;51.368;6.782;2022-12-10T04:51:52;100597.63;;;-1.72;100.00
9257;BME280;4665;51.368;6.782;2022-12-10T04:54:18;100583.09;;;-1.77;100.00
9257;BME280;4665;51.368;6.782;2022-12-10T04:56:44;100587.09;;;-1.70;100.00
9257;BME280;4665;51.368;6.782;2022-12-10T04:59:10;100589.03;;;-1.74;100.00
9257;BME280;4665;51.368;6.782;2022-12-10T05:01:35;100601.16;;;-1.73;100.00
9257;BME280;4665;51.368;6.782;2022-12-10T05:04:03;100602.84;;;-1.72;100.00
9257;BME280;4665;51.368;6.782;2022-12-10T05:06:29;100610.69;;;-1.72;100.00
9257;BME280;4665;51.368;6.782;2022-12-10T05:08:55;100612.28;;;-1.69;100.00
9257;BME280;4665;51.368;6.782;2022-12-10T05:11:22;100605.47;;;-1.72;100.00
9257;BME280;4665;51.368;6.782;2022-12-10T05:13:48;100599.38;;;-1.72;100.00
9257;BME280;4665;51.368;6.782;2022-12-10T05:16:16;100610.59;;;-1.70;100.00
9257;BME280;4665;51.368;6.782;2022-12-10T05:18:42;100606.19;;;-1.70;100.00
9257;BME280;4665;51.368;6.782;2022-12-10T05:21:11;100602.69;;;-1.68;100.00
9257;BME280;4665;51.368;6.782;2022-12-10T05:23:40;100602.69;;;-1.68;100.00
9257;BME280;4665;51.368;6.782;2022-12-10T05:26:12;100596.94;;;-1.75;100.00
9257;BME280;4665;51.368;6.782;2022-12-10T05:28:50;100598.59;;;-1.74;100.00
9257;BME280;4665;51.368;6.782;2022-12-10T05:33:55;100606.63;;;-1.77;100.00
9257;BME280;4665;51.368;6.782;2022-12-10T05:36:23;100605.78;;;-1.78;100.00
9257;BME280;4665;51.368;6.782;2022-12-10T05:38:49;100610.22;;;-1.80;100.00
9257;BME280;4665;51.368;6.782;2022-12-10T05:41:17;100608.56;;;-1.81;100.00
9257;BME280;4665;51.368;6.782;2022-12-10T05:43:44;100609.47;;;-1.82;100.00
9257;BME280;4665;51.368;6.782;2022-12-10T05:46:13;100616.28;;;-1.79;100.00
9257;BME280;4665;51.368;6.782;2022-12-10T05:48:39;100607.63;;;-1.80;100.00
9257;BME280;4665;51.368;6.782;2022-12-10T06:03:27;100618.03;;;-1.62;100.00
9257;BME280;4665;51.368;6.782;2022-12-10T06:05:53;100623.09;;;-1.59;100.00
9257;BME280;4665;51.368;6.782;2022-12-10T06:08:19;100616.94;;;-1.58;100.00
9257;BME280;4665;51.368;6.782;2022-12-10T06:10:44;100630.78;;;-1.56;100.00
9257;BME280;4665;51.368;6.782;2022-12-10T06:13:10;100628.16;;;-1.56;100.00
9257;BME280;4665;51.368;6.782;2022-12-10T06:15:38;100634.91;;;-1.52;100.00
9257;BME280;4665;51.368;6.782;2022-12-10T06:18:05;100640.13;;;-1.52;100.00
9257;BME280;4665;51.368;6.782;2022-12-10T06:20:31;100630.78;;;-1.56;100.00
9257;BME280;4665;51.368;6.782;2022-12-10T06:22:57;100639.44;;;-1.56;100.00
9257;BME280;4665;51.368;6.782;2022-12-10T06:25:22;100636.00;;;-1.56;100.00
9257;BME280;4665;51.368;6.782;2022-12-10T06:27:48;100636.00;;;-1.56;100.00
9257;BME280;4665;51.368;6.782;2022-12-10T06:30:13;100632.78;;;-1.61;100.00
9257;BME280;4665;51.368;6.782;2022-12-10T06:32:39;100637.06;;;-1.60;100.00
9257;BME280;4665;51.368;6.782;2022-12-10T06:35:05;100642.47;;;-1.63;100.00
9257;BME280;4665;51.368;6.782;2022-12-10T06:37:31;100645.84;;;-1.61;100.00
9257;BME280;4665;51.368;6.782;2022-12-10T06:39:56;100638.94;;;-1.62;100.00
9257;BME280;4665;51.368;6.782;2022-12-10T06:42:22;100644.16;;;-1.62;100.00
9257;BME280;4665;51.368;6.782;2022-12-10T06:44:47;100645.91;;;-1.63;100.00
9257;BME280;4665;51.368;6.782;2022-12-10T06:47:13;100645.25;;;-1.66;100.00
9257;BME280;4665;51.368;6.782;2022-12-10T06:49:40;100657.00;;;-1.58;100.00
9257;BME280;4665;51.368;6.782;2022-12-10T06:52:05;100658.91;;;-1.61;100.00
9257;BME280;4665;51.368;6.782;2022-12-10T06:54:31;100662.28;;;-1.59;100.00
9257;BME280;4665;51.368;6.782;2022-12-10T06:56:57;100662.13;;;-1.56;100.00
9257;BME280;4665;51.368;6.782;2022-12-10T06:59:23;100652.59;;;-1.57;100.00
9257;BME280;4665;51.368;6.782;2022-12-10T07:01:49;100661.06;;;-1.70;100.00
9257;BME280;4665;51.368;6.782;2022-12-10T07:04:14;100668.38;;;-1.76;100.00
9257;BME280;4665;51.368;6.782;2022-12-10T07:06:40;100662.47;;;-1.80;100.00
9257;BME280;4665;51.368;6.782;2022-12-10T07:09:06;100671.06;;;-1.78;100.00
9257;BME280;4665;51.368;6.782;2022-12-10T07:11:31;100666.00;;;-1.81;100.00
9257;BME280;4665;51.368;6.782;2022-12-10T07:13:58;100665.84;;;-1.78;100.00
9257;BME280;4665;51.368;6.782;2022-12-10T07:16:26;100661.75;;;-1.83;100.00
9257;BME280;4665;51.368;6.782;2022-12-10T07:18:53;100669.69;;;-1.85;100.00
9257;BME280;4665;51.368;6.782;2022-12-10T07:21:40;100669.53;;;-1.82;100.00
9257;BME280;4665;51.368;6.782;2022-12-10T07:24:10;100667.84;;;-1.83;100.00
9257;BME280;4665;51.368;6.782;2022-12-10T07:26:37;100672.59;;;-1.91;100.00
9257;BME280;4665;51.368;6.782;2022-12-10T07:29:05;100682.22;;;-1.92;100.00
9257;BME280;4665;51.368;6.782;2022-12-10T07:31:32;100688.38;;;-1.93;100.00
9257;BME280;4665;51.368;6.782;2022-12-10T07:33:58;100689.13;;;-1.91;100.00
9257;BME280;4665;51.368;6.782;2022-12-10T07:36:24;100695.50;;;-1.96;100.00
9257;BME280;4665;51.368;6.782;2022-12-10T07:38:52;100692.81;;;-1.95;100.00
9257;BME280;4665;51.368;6.782;2022-12-10T07:41:18;100687.66;;;-1.96;100.00
9257;BME280;4665;51.368;6.782;2022-12-10T07:43:44;100694.13;;;-2.03;100.00
9257;BME280;4665;51.368;6.782;2022-12-10T07:46:19;100698.28;;;-1.99;100.00
9257;BME280;4665;51.368;6.782;2022-12-10T07:48:46;100694.94;;;-2.03;100.00
9257;BME280;4665;51.368;6.782;2022-12-10T07:51:13;100696.66;;;-2.02;100.00
9257;BME280;4665;51.368;6.782;2022-12-10T07:53:39;100709.72;;;-2.02;100.00
9257;BME280;4665;51.368;6.782;2022-12-10T07:56:05;100713.22;;;-2.03;100.00
9257;BME280;4665;51.368;6.782;2022-12-10T07:58:31;100706.47;;;-2.07;100.00
9257;BME280;4665;51.368;6.782;2022-12-10T08:00:58;100718.50;;;-2.04;100.00
9257;BME280;4665;51.368;6.782;2022-12-10T08:03:24;100711.47;;;-2.02;100.00
9257;BME280;4665;51.368;6.782;2022-12-10T08:06:01;100711.41;;;-2.01;100.00
9257;BME280;4665;51.368;6.782;2022-12-10T08:08:27;100713.22;;;-2.03;100.00
9257;BME280;4665;51.368;6.782;2022-12-10T08:10:52;100707.56;;;-2.11;100.00
9257;BME280;4665;51.368;6.782;2022-12-10T08:13:17;100704.84;;;-2.09;100.00
9257;BME280;4665;51.368;6.782;2022-12-10T08:15:43;100712.84;;;-2.13;100.00
9257;BME280;4665;51.368;6.782;2022-12-10T08:18:08;100722.50;;;-2.15;100.00
9257;BME280;4665;51.368;6.782;2022-12-10T08:20:35;100723.44;;;-2.16;100.00
9257;BME280;4665;51.368;6.782;2022-12-10T08:23:00;100729.63;;;-2.18;100.00
9257;BME280;4665;51.368;6.782;2022-12-10T08:25:26;100746.84;;;-2.14;100.00
9257;BME280;4665;51.368;6.782;2022-12-10T08:27:51;100744.31;;;-2.16;100.00
9257;BME280;4665;51.368;6.782;2022-12-10T08:30:17;100735.72;;;-2.18;100.00
9257;BME280;4665;51.368;6.782;2022-12-10T08:32:42;100735.22;;;-2.26;100.00
9257;BME280;4665;51.368;6.782;2022-12-10T08:35:08;100739.56;;;-2.25;100.00
9257;BME280;4665;51.368;6.782;2022-12-10T08:37:34;100739.44;;;-2.23;100.00
9257;BME280;4665;51.368;6.782;2022-12-10T08:39:59;100746.44;;;-2.24;100.00
9257;BME280;4665;51.368;6.782;2022-12-10T08:42:25;100749.06;;;-2.24;100.00
9257;BME280;4665;51.368;6.782;2022-12-10T08:44:50;100750.66;;;-2.21;100.00
9257;BME280;4665;51.368;6.782;2022-12-10T08:47:16;100754.34;;;-2.25;100.00
9257;BME280;4665;51.368;6.782;2022-12-10T08:49:41;100752.66;;;-2.26;100.00
9257;BME280;4665;51.368;6.782;2022-12-10T08:52:07;100763.72;;;-2.21;100.00
9257;BME280;4665;51.368;6.782;2022-12-10T08:54:32;100759.34;;;-2.21;100.00
9257;BME280;4665;51.368;6.782;2022-12-10T08:56:58;100762.81;;;-2.20;100.00
9257;BME280;4665;51.368;6.782;2022-12-10T08:59:23;100770.00;;;-2.25;100.00
9257;BME280;4665;51.368;6.782;2022-12-10T09:01:51;100773.31;;;-2.22;100.00
9257;BME280;4665;51.368;6.782;2022-12-10T09:04:17;100776.84;;;-2.23;100.00
9257;BME280;4665;51.368;6.782;2022-12-10T09:06:42;100775.94;;;-2.22;100.00
9257;BME280;4665;51.368;6.782;2022-12-10T09:09:08;100781.94;;;-2.20;100.00
9257;BME280;4665;51.368;6.782;2022-12-10T09:11:34;100778.53;;;-2.22;100.00
9257;BME280;4665;51.368;6.782;2022-12-10T09:14:00;100782.78;;;-2.19;100.00
9257;BME280;4665;51.368;6.782;2022-12-10T09:16:44;100779.31;;;-2.20;100.00
9257;BME280;4665;51.368;6.782;2022-12-10T09:19:09;100783.59;;;-2.19;100.00
9257;BME280;4665;51.368;6.782;2022-12-10T09:21:35;100794.19;;;-2.22;100.00
9257;BME280;4665;51.368;6.782;2022-12-10T09:24:01;100802.88;;;-2.21;100.00
9257;BME280;4665;51.368;6.782;2022-12-10T09:26:27;100806.25;;;-2.19;100.00
9257;BME280;4665;51.368;6.782;2022-12-10T09:28:53;100812.31;;;-2.19;100.00
9257;BME280;4665;51.368;6.782;2022-12-10T09:31:20;100807.03;;;-2.17;100.00
9257;BME280;4665;51.368;6.782;2022-12-10T09:33:48;100803.81;;;-2.22;100.00
9257;BME280;4665;51.368;6.782;2022-12-10T09:36:14;100804.69;;;-2.23;100.00
9257;BME280;4665;51.368;6.782;2022-12-10T09:38:41;100802.03;;;-2.22;100.00
9257;BME280;4665;51.368;6.782;2022-12-10T09:43:48;100805.88;;;-2.12;100.00
9257;BME280;4665;51.368;6.782;2022-12-10T09:46:26;100805.88;;;-2.12;100.00
9257;BME280;4665;51.368;6.782;2022-12-10T09:51:40;100797.22;;;-2.12;100.00
9257;BME280;4665;51.368;6.782;2022-12-10T09:54:33;100815.75;;;-2.18;100.00
9257;BME280;4665;51.368;6.782;2022-12-10T09:57:05;100796.03;;;-2.24;100.00
9257;BME280;4665;51.368;6.782;2022-12-10T09:59:46;100800.97;;;-2.18;100.00
9257;BME280;4665;51.368;6.782;2022-12-10T10:02:25;100801.81;;;-2.17;100.00
9257;BME280;4665;51.368;6.782;2022-12-10T10:07:38;100799.00;;;-2.13;100.00
9257;BME280;4665;51.368;6.782;2022-12-10T10:10:57;100799.75;;;-2.10;100.00
9257;BME280;4665;51.368;6.782;2022-12-10T10:15:35;100810.47;;;-2.17;100.00
9257;BME280;4665;51.368;6.782;2022-12-10T10:18:36;100806.81;;;-2.13;100.00
9257;BME280;4665;51.368;6.782;2022-12-10T10:21:37;100797.94;;;-2.08;100.00
9257;BME280;4665;51.368;6.782;2022-12-10T10:24:04;100797.00;;;-2.07;100.00
9257;BME280;4665;51.368;6.782;2022-12-10T10:26:32;100793.56;;;-2.08;100.00
9257;BME280;4665;51.368;6.782;2022-12-10T10:29:05;100795.31;;;-2.08;100.00
9257;BME280;4665;51.368;6.782;2022-12-10T10:31:33;100792.50;;;-2.04;100.00
9257;BME280;4665;51.368;6.782;2022-12-10T10:34:02;100782.03;;;-2.04;100.00
9257;BME280;4665;51.368;6.782;2022-12-10T10:36:32;100794.09;;;-2.01;100.00
9257;BME280;4665;51.368;6.782;2022-12-10T10:39:09;100787.03;;;-1.99;100.00
9257;BME280;4665;51.368;6.782;2022-12-10T10:41:37;100799.94;;;-1.96;100.00
9257;BME280;4665;51.368;6.782;2022-12-10T10:44:13;100793.72;;;-1.94;100.00
9257;BME280;4665;51.368;6.782;2022-12-10T10:46:41;100791.06;;;-1.92;100.00
9257;BME280;4665;51.368;6.782;2022-12-10T10:49:33;100789.81;;;-1.85;100.00
9257;BME280;4665;51.368;6.782;2022-12-10T10:52:19;100794.81;;;-1.80;100.00
9257;BME280;4665;51.368;6.782;2022-12-10T10:54:47;100792.59;;;-1.71;100.00
9257;BME280;4665;51.368;6.782;2022-12-10T10:57:33;100783.69;;;-1.66;100.00
9257;BME280;4665;51.368;6.782;2022-12-10T11:00:17;100791.97;;;-1.58;100.00
9257;BME280;4665;51.368;6.782;2022-12-10T11:02:43;100784.84;;;-1.55;100.00
9257;BME280;4665;51.368;6.782;2022-12-10T11:05:22;100774.47;;;-1.56;100.00
9257;BME280;4665;51.368;6.782;2022-12-10T11:07:57;100774.16;;;-1.50;100.00
9257;BME280;4665;51.368;6.782;2022-12-10T11:10:25;100775.19;;;-1.53;100.00
9257;BME280;4665;51.368;6.782;2022-12-10T11:13:06;100773.84;;;-1.44;100.00
9257;BME280;4665;51.368;6.782;2022-12-10T11:15:40;100766.94;;;-1.45;100.00
9257;BME280;4665;51.368;6.782;2022-12-10T11:18:27;100775.78;;;-1.48;100.00
9257;BME280;4665;51.368;6.782;2022-12-10T11:23:36;100772.22;;;-1.46;100.00
9257;BME280;4665;51.368;6.782;2022-12-10T11:31:33;100768.38;;;-1.39;100.00
9257;BME280;4665;51.368;6.782;2022-12-10T11:34:27;100773.53;;;-1.38;100.00
9257;BME280;4665;51.368;6.782;2022-12-10T11:39:58;100780.13;;;-1.31;100.00
9257;BME280;4665;51.368;6.782;2022-12-10T11:42:42;100776.84;;;-1.34;100.00
9257;BME280;4665;51.368;6.782;2022-12-10T11:48:19;100765.09;;;-1.43;100.00
9257;BME280;4665;51.368;6.782;2022-12-10T11:50:55;100774.31;;;-1.36;100.00
9257;BME280;4665;51.368;6.782;2022-12-10T12:15:39;100776.00;;;-1.35;100.00
9257;BME280;4665;51.368;6.782;2022-12-10T12:18:20;100774.06;;;-1.31;100.00
9257;BME280;4665;51.368;6.782;2022-12-10T12:20:55;100776.00;;;-1.35;100.00
9257;BME280;4665;51.368;6.782;2022-12-10T12:23:28;100770.03;;;-1.37;100.00
9257;BME280;4665;51.368;6.782;2022-12-10T12:26:21;100772.22;;;-1.29;100.00
9257;BME280;4665;51.368;6.782;2022-12-10T12:31:37;100771.00;;;-1.22;100.00
9257;BME280;4665;51.368;6.782;2022-12-10T12:34:18;100770.16;;;-1.22;100.00
9257;BME280;4665;51.368;6.782;2022-12-10T12:36:46;100763.75;;;-1.17;100.00
9257;BME280;4665;51.368;6.782;2022-12-10T12:39:15;100775.81;;;-1.14;100.00
9257;BME280;4665;51.368;6.782;2022-12-10T12:41:57;100769.69;;;-1.13;100.00
9257;BME280;4665;51.368;6.782;2022-12-10T12:47:36;100778.72;;;-1.03;100.00
9257;BME280;4665;51.368;6.782;2022-12-10T12:50:39;100776.94;;;-1.02;100.00
9257;BME280;4665;51.368;6.782;2022-12-10T12:53:00;100782.34;;;-1.06;100.00
9257;BME280;4665;51.368;6.782;2022-12-10T12:58:14;100774.25;;;-1.01;100.00
9257;BME280;4665;51.368;6.782;2022-12-10T13:00:46;100782.94;;;-1.00;100.00
9257;BME280;4665;51.368;6.782;2022-12-10T13:03:35;100782.81;;;-0.97;100.00
9257;BME280;4665;51.368;6.782;2022-12-10T13:06:22;100787.03;;;-0.95;100.00
9257;BME280;4665;51.368;6.782;2022-12-10T13:11:41;100785.00;;;-0.90;100.00
9257;BME280;4665;51.368;6.782;2022-12-10T13:22:06;100772.84;;;-0.91;100.00
9257;BME280;4665;51.368;6.782;2022-12-10T13:27:39;100776.06;;;-0.86;100.00
9257;BME280;4665;51.368;6.782;2022-12-10T13:30:27;100778.69;;;-0.86;100.00
9257;BME280;4665;51.368;6.782;2022-12-10T13:33:05;100773.34;;;-0.84;100.00
9257;BME280;4665;51.368;6.782;2022-12-10T13:35:58;100782.91;;;-0.83;100.00
9257;BME280;4665;51.368;6.782;2022-12-10T13:38:27;100791.59;;;-0.82;100.00
9257;BME280;4665;51.368;6.782;2022-12-10T13:41:03;100786.44;;;-0.84;100.00
9257;BME280;4665;51.368;6.782;2022-12-10T13:44:00;100792.19;;;-0.77;100.00
9257;BME280;4665;51.368;6.782;2022-12-10T13:49:30;100788.97;;;-0.82;100.00
9257;BME280;4665;51.368;6.782;2022-12-10T13:52:18;100788.03;;;-0.81;100.00
9257;BME280;4665;51.368;6.782;2022-12-10T13:55:15;100796.66;;;-0.79;100.00
9257;BME280;4665;51.368;6.782;2022-12-10T14:00:20;100790.50;;;-0.78;100.00
9257;BME280;4665;51.368;6.782;2022-12-10T14:08:05;100790.59;;;-0.80;100.00
9257;BME280;4665;51.368;6.782;2022-12-10T14:10:35;100808.81;;;-0.78;100.00
9257;BME280;4665;51.368;6.782;2022-12-10T14:13:03;100808.06;;;-0.80;100.00
9257;BME280;4665;51.368;6.782;2022-12-10T14:15:30;100804.59;;;-0.81;100.00
9257;BME280;4665;51.368;6.782;2022-12-10T14:18:04;100811.44;;;-0.78;100.00
9257;BME280;4665;51.368;6.782;2022-12-10T14:20:34;100814.06;;;-0.78;100.00
9257;BME280;4665;51.368;6.782;2022-12-10T14:23:05;100821.31;;;-0.83;100.00
9257;BME280;4665;51.368;6.782;2022-12-10T14:28:40;100817.41;;;-0.92;100.00
9257;BME280;4665;51.368;6.782;2022-12-10T14:31:16;100821.38;;;-0.85;100.00
9257;BME280;4665;51.368;6.782;2022-12-10T14:33:44;100822.22;;;-0.85;100.00
9257;BME280;4665;51.368;6.782;2022-12-10T14:36:17;100817.16;;;-0.88;100.00
9257;BME280;4665;51.368;6.782;2022-12-10T14:38:45;100816.47;;;-0.91;100.00
9257;BME280;4665;51.368;6.782;2022-12-10T14:41:19;100824.41;;;-0.93;100.00
9257;BME280;4665;51.368;6.782;2022-12-10T14:43:45;100832.09;;;-0.90;100.00
9257;BME280;4665;51.368;6.782;2022-12-10T14:46:25;100830.22;;;-0.88;100.00
9257;BME280;4665;51.368;6.782;2022-12-10T14:48:53;100835.59;;;-0.91;100.00
9257;BME280;4665;51.368;6.782;2022-12-10T14:51:26;100838.16;;;-0.89;100.00
9257;BME280;4665;51.368;6.782;2022-12-10T14:53:54;100832.09;;;-0.90;100.00
9257;BME280;4665;51.368;6.782;2022-12-10T14:56:27;100837.47;;;-0.93;100.00
9257;BME280;4665;51.368;6.782;2022-12-10T15:02:26;100833.16;;;-0.94;100.00
9257;BME280;4665;51.368;6.782;2022-12-10T15:04:55;100832.38;;;-0.96;100.00
9257;BME280;4665;51.368;6.782;2022-12-10T15:07:32;100828.47;;;-1.04;100.00
9257;BME280;4665;51.368;6.782;2022-12-10T15:10:07;100836.09;;;-1.00;100.00
9257;BME280;4665;51.368;6.782;2022-12-10T15:12:52;100837.84;;;-1.00;100.00
9257;BME280;4665;51.368;6.782;2022-12-10T15:15:28;100834.34;;;-0.99;100.00
9257;BME280;4665;51.368;6.782;2022-12-10T15:20:31;100840.41;;;-0.99;100.00